sensor_id;sensor_type;location;lat;lon;timestamp;P1;durP1;ratioP1;P2;durP2;ratioP2
46875;SDS011;32866;50.160;14.768;2022-10-17T00:00:51;38.40;;;23.20;;
46875;SDS011;32866;50.160;14.768;2022-10-17T00:03:16;40.80;;;24.70;;
46875;SDS011;32866;50.160;14.768;2022-10-17T00:05:43;44.40;;;25.60;;
46875;SDS011;32866;50.160;14.768;2022-10-17T00:08:11;39.90;;;23.60;;
46875;SDS011;32866;50.160;14.768;2022-10-17T00:10:37;41.53;;;24.83;;
46875;SDS011;32866;50.160;14.768;2022-10-17T00:13:03;36.67;;;24.00;;
46875;SDS011;32866;50.160;14.768;2022-10-17T00:15:29;37.75;;;23.60;;
46875;SDS011;32866;50.160;14.768;2022-10-17T00:17:54;38.15;;;22.95;;
46875;SDS011;32866;50.160;14.768;2022-10-17T00:20:20;41.28;;;24.50;;
46875;SDS011;32866;50.160;14.768;2022-10-17T00:22:45;41.33;;;25.40;;
46875;SDS011;32866;50.160;14.768;2022-10-17T00:25:11;41.72;;;26.08;;
46875;SDS011;32866;50.160;14.768;2022-10-17T00:27:37;37.35;;;24.70;;
46875;SDS011;32866;50.160;14.768;2022-10-17T00:30:04;45.17;;;27.80;;
46875;SDS011;32866;50.160;14.768;2022-10-17T00:32:31;41.58;;;26.02;;
46875;SDS011;32866;50.160;14.768;2022-10-17T00:34:56;45.35;;;27.52;;
46875;SDS011;32866;50.160;14.768;2022-10-17T00:39:47;51.17;;;29.60;;
46875;SDS011;32866;50.160;14.768;2022-10-17T00:42:13;51.33;;;29.35;;
46875;SDS011;32866;50.160;14.768;2022-10-17T00:47:05;49.60;;;30.25;;
46875;SDS011;32866;50.160;14.768;2022-10-17T00:49:36;49.53;;;29.07;;
46875;SDS011;32866;50.160;14.768;2022-10-17T00:52:22;51.67;;;31.07;;
46875;SDS011;32866;50.160;14.768;2022-10-17T00:54:54;47.50;;;28.20;;
46875;SDS011;32866;50.160;14.768;2022-10-17T00:57:22;39.37;;;26.70;;
46875;SDS011;32866;50.160;14.768;2022-10-17T01:02:17;49.40;;;26.08;;
46875;SDS011;32866;50.160;14.768;2022-10-17T01:04:45;39.87;;;26.23;;
46875;SDS011;32866;50.160;14.768;2022-10-17T01:07:12;35.38;;;24.05;;
46875;SDS011;32866;50.160;14.768;2022-10-17T01:09:38;35.88;;;24.80;;
46875;SDS011;32866;50.160;14.768;2022-10-17T01:12:19;36.63;;;23.63;;
46875;SDS011;32866;50.160;14.768;2022-10-17T01:22:46;39.50;;;25.53;;
46875;SDS011;32866;50.160;14.768;2022-10-17T01:25:28;36.97;;;23.53;;
46875;SDS011;32866;50.160;14.768;2022-10-17T01:30:55;35.73;;;22.67;;
46875;SDS011;32866;50.160;14.768;2022-10-17T01:36:10;28.25;;;21.38;;
46875;SDS011;32866;50.160;14.768;2022-10-17T01:38:46;31.80;;;20.37;;
46875;SDS011;32866;50.160;14.768;2022-10-17T01:44:21;32.23;;;20.77;;
46875;SDS011;32866;50.160;14.768;2022-10-17T01:47:00;34.55;;;21.80;;
46875;SDS011;32866;50.160;14.768;2022-10-17T01:49:30;50.97;;;23.33;;
46875;SDS011;32866;50.160;14.768;2022-10-17T01:52:02;38.07;;;22.47;;
46875;SDS011;32866;50.160;14.768;2022-10-17T01:54:34;29.53;;;20.60;;
46875;SDS011;32866;50.160;14.768;2022-10-17T01:57:05;30.90;;;21.13;;
46875;SDS011;32866;50.160;14.768;2022-10-17T01:59:42;27.97;;;19.00;;
46875;SDS011;32866;50.160;14.768;2022-10-17T02:02:10;28.43;;;19.97;;
46875;SDS011;32866;50.160;14.768;2022-10-17T02:04:39;32.27;;;20.00;;
46875;SDS011;32866;50.160;14.768;2022-10-17T02:07:09;34.97;;;20.00;;
46875;SDS011;32866;50.160;14.768;2022-10-17T02:09:37;48.40;;;20.40;;
46875;SDS011;32866;50.160;14.768;2022-10-17T02:20:18;30.20;;;19.40;;
46875;SDS011;32866;50.160;14.768;2022-10-17T02:28:19;28.30;;;20.40;;
46875;SDS011;32866;50.160;14.768;2022-10-17T02:33:38;19.33;;;16.03;;
46875;SDS011;32866;50.160;14.768;2022-10-17T02:36:10;19.80;;;14.57;;
46875;SDS011;32866;50.160;14.768;2022-10-17T02:38:39;21.07;;;16.40;;
46875;SDS011;32866;50.160;14.768;2022-10-17T02:41:06;27.97;;;19.43;;
46875;SDS011;32866;50.160;14.768;2022-10-17T02:43:36;28.00;;;19.70;;
46875;SDS011;32866;50.160;14.768;2022-10-17T02:46:03;31.90;;;22.43;;
46875;SDS011;32866;50.160;14.768;2022-10-17T02:48:35;32.43;;;22.23;;
46875;SDS011;32866;50.160;14.768;2022-10-17T02:54:13;39.07;;;24.27;;
46875;SDS011;32866;50.160;14.768;2022-10-17T02:57:07;33.33;;;22.00;;
46875;SDS011;32866;50.160;14.768;2022-10-17T02:59:37;32.23;;;23.43;;
46875;SDS011;32866;50.160;14.768;2022-10-17T03:02:06;38.90;;;25.17;;
46875;SDS011;32866;50.160;14.768;2022-10-17T03:04:31;37.67;;;25.83;;
46875;SDS011;32866;50.160;14.768;2022-10-17T03:06:57;37.07;;;24.20;;
46875;SDS011;32866;50.160;14.768;2022-10-17T03:09:23;36.40;;;23.15;;
46875;SDS011;32866;50.160;14.768;2022-10-17T03:11:48;39.63;;;23.20;;
46875;SDS011;32866;50.160;14.768;2022-10-17T03:14:14;38.53;;;24.88;;
46875;SDS011;32866;50.160;14.768;2022-10-17T03:16:39;35.13;;;24.15;;
46875;SDS011;32866;50.160;14.768;2022-10-17T03:19:04;37.45;;;23.88;;
46875;SDS011;32866;50.160;14.768;2022-10-17T03:21:30;35.83;;;23.70;;
46875;SDS011;32866;50.160;14.768;2022-10-17T03:23:55;40.92;;;25.85;;
46875;SDS011;32866;50.160;14.768;2022-10-17T03:26:20;40.97;;;24.77;;
46875;SDS011;32866;50.160;14.768;2022-10-17T03:28:46;47.58;;;24.20;;
46875;SDS011;32866;50.160;14.768;2022-10-17T03:31:12;49.55;;;21.83;;
46875;SDS011;32866;50.160;14.768;2022-10-17T03:33:38;28.63;;;20.00;;
46875;SDS011;32866;50.160;14.768;2022-10-17T03:36:07;32.58;;;21.45;;
46875;SDS011;32866;50.160;14.768;2022-10-17T03:38:34;30.93;;;20.80;;
46875;SDS011;32866;50.160;14.768;2022-10-17T03:41:00;33.55;;;21.80;;
46875;SDS011;32866;50.160;14.768;2022-10-17T03:43:25;34.88;;;22.95;;
46875;SDS011;32866;50.160;14.768;2022-10-17T03:45:51;33.47;;;22.55;;
46875;SDS011;32866;50.160;14.768;2022-10-17T03:48:16;43.97;;;22.30;;
46875;SDS011;32866;50.160;14.768;2022-10-17T03:50:42;32.40;;;19.05;;
46875;SDS011;32866;50.160;14.768;2022-10-17T03:53:07;32.10;;;21.20;;
46875;SDS011;32866;50.160;14.768;2022-10-17T03:55:32;43.95;;;26.25;;
46875;SDS011;32866;50.160;14.768;2022-10-17T03:57:58;38.50;;;23.50;;
46875;SDS011;32866;50.160;14.768;2022-10-17T04:00:23;34.42;;;22.33;;
46875;SDS011;32866;50.160;14.768;2022-10-17T04:02:49;33.03;;;21.42;;
46875;SDS011;32866;50.160;14.768;2022-10-17T04:05:14;34.03;;;23.70;;
46875;SDS011;32866;50.160;14.768;2022-10-17T04:07:39;39.70;;;24.00;;
46875;SDS011;32866;50.160;14.768;2022-10-17T04:10:05;42.58;;;24.27;;
46875;SDS011;32866;50.160;14.768;2022-10-17T04:12:31;37.88;;;24.40;;
46875;SDS011;32866;50.160;14.768;2022-10-17T04:14:56;36.25;;;21.88;;
46875;SDS011;32866;50.160;14.768;2022-10-17T04:17:22;36.25;;;23.08;;
46875;SDS011;32866;50.160;14.768;2022-10-17T04:19:50;40.55;;;23.48;;
46875;SDS011;32866;50.160;14.768;2022-10-17T04:22:15;31.93;;;21.23;;
46875;SDS011;32866;50.160;14.768;2022-10-17T04:24:41;34.17;;;20.88;;
46875;SDS011;32866;50.160;14.768;2022-10-17T04:27:06;35.70;;;23.45;;
46875;SDS011;32866;50.160;14.768;2022-10-17T04:29:32;37.33;;;24.52;;
46875;SDS011;32866;50.160;14.768;2022-10-17T04:31:57;33.90;;;22.80;;
46875;SDS011;32866;50.160;14.768;2022-10-17T04:34:22;34.20;;;23.38;;
46875;SDS011;32866;50.160;14.768;2022-10-17T04:36:48;37.47;;;25.75;;
46875;SDS011;32866;50.160;14.768;2022-10-17T04:39:15;44.23;;;27.17;;
46875;SDS011;32866;50.160;14.768;2022-10-17T04:41:41;42.20;;;26.48;;
46875;SDS011;32866;50.160;14.768;2022-10-17T04:44:06;42.28;;;26.17;;
46875;SDS011;32866;50.160;14.768;2022-10-17T04:46:32;41.33;;;25.50;;
46875;SDS011;32866;50.160;14.768;2022-10-17T04:48:57;43.72;;;26.63;;
46875;SDS011;32866;50.160;14.768;2022-10-17T04:51:22;40.92;;;24.13;;
46875;SDS011;32866;50.160;14.768;2022-10-17T04:53:48;37.90;;;22.15;;
46875;SDS011;32866;50.160;14.768;2022-10-17T04:56:14;35.97;;;22.70;;
46875;SDS011;32866;50.160;14.768;2022-10-17T04:58:42;43.30;;;26.30;;
46875;SDS011;32866;50.160;14.768;2022-10-17T05:01:10;42.13;;;25.90;;
46875;SDS011;32866;50.160;14.768;2022-10-17T05:03:37;42.37;;;25.83;;
46875;SDS011;32866;50.160;14.768;2022-10-17T05:06:10;41.20;;;23.45;;
46875;SDS011;32866;50.160;14.768;2022-10-17T05:08:37;40.00;;;24.73;;
46875;SDS011;32866;50.160;14.768;2022-10-17T05:11:03;35.90;;;22.42;;
46875;SDS011;32866;50.160;14.768;2022-10-17T05:13:30;41.77;;;23.43;;
46875;SDS011;32866;50.160;14.768;2022-10-17T05:15:57;36.37;;;22.03;;
46875;SDS011;32866;50.160;14.768;2022-10-17T05:18:26;32.77;;;21.90;;
46875;SDS011;32866;50.160;14.768;2022-10-17T05:20:52;31.27;;;20.57;;
46875;SDS011;32866;50.160;14.768;2022-10-17T05:23:18;46.97;;;20.65;;
46875;SDS011;32866;50.160;14.768;2022-10-17T05:25:43;32.90;;;20.52;;
46875;SDS011;32866;50.160;14.768;2022-10-17T05:28:09;32.67;;;20.13;;
46875;SDS011;32866;50.160;14.768;2022-10-17T05:30:34;29.75;;;18.10;;
46875;SDS011;32866;50.160;14.768;2022-10-17T05:33:00;38.75;;;23.27;;
46875;SDS011;32866;50.160;14.768;2022-10-17T05:35:25;33.80;;;22.58;;
46875;SDS011;32866;50.160;14.768;2022-10-17T05:37:51;41.42;;;25.02;;
46875;SDS011;32866;50.160;14.768;2022-10-17T05:40:16;32.25;;;22.05;;
46875;SDS011;32866;50.160;14.768;2022-10-17T05:42:45;30.45;;;19.92;;
46875;SDS011;32866;50.160;14.768;2022-10-17T05:45:11;30.93;;;21.57;;
46875;SDS011;32866;50.160;14.768;2022-10-17T05:47:37;31.85;;;20.88;;
46875;SDS011;32866;50.160;14.768;2022-10-17T05:50:02;34.95;;;21.77;;
46875;SDS011;32866;50.160;14.768;2022-10-17T05:52:28;38.20;;;23.15;;
46875;SDS011;32866;50.160;14.768;2022-10-17T05:54:53;33.00;;;23.05;;
46875;SDS011;32866;50.160;14.768;2022-10-17T05:57:18;35.25;;;23.45;;
46875;SDS011;32866;50.160;14.768;2022-10-17T05:59:44;39.92;;;23.50;;
46875;SDS011;32866;50.160;14.768;2022-10-17T06:02:10;35.13;;;24.20;;
46875;SDS011;32866;50.160;14.768;2022-10-17T06:04:36;35.70;;;23.10;;
46875;SDS011;32866;50.160;14.768;2022-10-17T06:07:02;35.28;;;23.20;;
46875;SDS011;32866;50.160;14.768;2022-10-17T06:09:27;40.63;;;25.40;;
46875;SDS011;32866;50.160;14.768;2022-10-17T06:11:53;39.17;;;24.55;;
46875;SDS011;32866;50.160;14.768;2022-10-17T06:14:18;38.38;;;23.48;;
46875;SDS011;32866;50.160;14.768;2022-10-17T06:16:43;38.97;;;24.52;;
46875;SDS011;32866;50.160;14.768;2022-10-17T06:19:09;38.38;;;23.05;;
46875;SDS011;32866;50.160;14.768;2022-10-17T06:21:35;35.27;;;21.93;;
46875;SDS011;32866;50.160;14.768;2022-10-17T06:24:02;37.50;;;23.63;;
46875;SDS011;32866;50.160;14.768;2022-10-17T06:26:27;35.67;;;23.13;;
46875;SDS011;32866;50.160;14.768;2022-10-17T06:28:53;35.53;;;22.50;;
46875;SDS011;32866;50.160;14.768;2022-10-17T06:31:19;38.53;;;24.23;;
46875;SDS011;32866;50.160;14.768;2022-10-17T06:33:45;40.35;;;25.13;;
46875;SDS011;32866;50.160;14.768;2022-10-17T06:36:11;44.53;;;25.92;;
46875;SDS011;32866;50.160;14.768;2022-10-17T06:38:37;38.33;;;22.60;;
46875;SDS011;32866;50.160;14.768;2022-10-17T06:41:06;37.95;;;22.67;;
46875;SDS011;32866;50.160;14.768;2022-10-17T06:43:37;33.27;;;21.93;;
46875;SDS011;32866;50.160;14.768;2022-10-17T06:48:29;37.67;;;22.57;;
46875;SDS011;32866;50.160;14.768;2022-10-17T06:51:01;34.20;;;22.38;;
46875;SDS011;32866;50.160;14.768;2022-10-17T06:53:28;33.30;;;21.53;;
46875;SDS011;32866;50.160;14.768;2022-10-17T06:55:58;34.37;;;23.53;;
46875;SDS011;32866;50.160;14.768;2022-10-17T06:58:31;39.77;;;23.80;;
46875;SDS011;32866;50.160;14.768;2022-10-17T07:00:59;33.03;;;23.37;;
46875;SDS011;32866;50.160;14.768;2022-10-17T07:03:25;38.35;;;24.15;;
46875;SDS011;32866;50.160;14.768;2022-10-17T07:05:51;37.53;;;23.90;;
46875;SDS011;32866;50.160;14.768;2022-10-17T07:10:42;36.30;;;24.83;;
46875;SDS011;32866;50.160;14.768;2022-10-17T07:13:07;41.47;;;25.73;;
46875;SDS011;32866;50.160;14.768;2022-10-17T07:15:32;41.65;;;26.92;;
46875;SDS011;32866;50.160;14.768;2022-10-17T07:17:58;37.45;;;23.60;;
46875;SDS011;32866;50.160;14.768;2022-10-17T07:20:23;41.33;;;25.73;;
46875;SDS011;32866;50.160;14.768;2022-10-17T07:22:48;36.30;;;23.95;;
46875;SDS011;32866;50.160;14.768;2022-10-17T07:25:14;40.17;;;23.15;;
46875;SDS011;32866;50.160;14.768;2022-10-17T07:27:39;33.60;;;21.38;;
46875;SDS011;32866;50.160;14.768;2022-10-17T07:30:05;31.15;;;21.02;;
46875;SDS011;32866;50.160;14.768;2022-10-17T07:32:31;31.00;;;21.27;;
46875;SDS011;32866;50.160;14.768;2022-10-17T07:34:56;39.67;;;20.75;;
46875;SDS011;32866;50.160;14.768;2022-10-17T07:37:21;33.30;;;20.83;;
46875;SDS011;32866;50.160;14.768;2022-10-17T07:39:47;32.45;;;21.05;;
46875;SDS011;32866;50.160;14.768;2022-10-17T07:44:38;28.67;;;20.42;;
46875;SDS011;32866;50.160;14.768;2022-10-17T07:47:03;35.00;;;21.83;;
46875;SDS011;32866;50.160;14.768;2022-10-17T07:49:29;32.00;;;22.25;;
46875;SDS011;32866;50.160;14.768;2022-10-17T07:51:55;32.90;;;21.58;;
46875;SDS011;32866;50.160;14.768;2022-10-17T07:54:20;28.60;;;20.92;;
46875;SDS011;32866;50.160;14.768;2022-10-17T07:59:14;32.70;;;21.38;;
46875;SDS011;32866;50.160;14.768;2022-10-17T08:01:43;31.23;;;21.40;;
46875;SDS011;32866;50.160;14.768;2022-10-17T08:04:08;29.65;;;20.88;;
46875;SDS011;32866;50.160;14.768;2022-10-17T08:06:33;30.48;;;20.90;;
46875;SDS011;32866;50.160;14.768;2022-10-17T08:08:59;31.52;;;21.80;;
46875;SDS011;32866;50.160;14.768;2022-10-17T08:11:25;32.05;;;23.17;;
46875;SDS011;32866;50.160;14.768;2022-10-17T08:13:51;32.22;;;20.73;;
46875;SDS011;32866;50.160;14.768;2022-10-17T08:18:42;31.08;;;19.88;;
46875;SDS011;32866;50.160;14.768;2022-10-17T08:21:08;35.17;;;21.67;;
46875;SDS011;32866;50.160;14.768;2022-10-17T08:26:01;32.88;;;21.80;;
46875;SDS011;32866;50.160;14.768;2022-10-17T08:28:27;31.58;;;23.55;;
46875;SDS011;32866;50.160;14.768;2022-10-17T08:30:53;36.15;;;21.63;;
46875;SDS011;32866;50.160;14.768;2022-10-17T08:33:25;35.95;;;22.50;;
46875;SDS011;32866;50.160;14.768;2022-10-17T08:35:50;32.58;;;22.42;;
46875;SDS011;32866;50.160;14.768;2022-10-17T08:38:15;29.42;;;21.52;;
46875;SDS011;32866;50.160;14.768;2022-10-17T08:43:13;33.47;;;21.98;;
46875;SDS011;32866;50.160;14.768;2022-10-17T08:46:08;32.45;;;22.10;;
46875;SDS011;32866;50.160;14.768;2022-10-17T08:48:38;28.30;;;21.30;;
46875;SDS011;32866;50.160;14.768;2022-10-17T08:51:17;32.85;;;21.98;;
46875;SDS011;32866;50.160;14.768;2022-10-17T08:53:48;33.60;;;20.77;;
46875;SDS011;32866;50.160;14.768;2022-10-17T08:58:44;28.67;;;20.67;;
46875;SDS011;32866;50.160;14.768;2022-10-17T09:07:05;31.83;;;21.88;;
46875;SDS011;32866;50.160;14.768;2022-10-17T09:10:08;32.22;;;22.02;;
46875;SDS011;32866;50.160;14.768;2022-10-17T09:13:16;34.97;;;22.48;;
46875;SDS011;32866;50.160;14.768;2022-10-17T09:15:56;25.55;;;20.08;;
46875;SDS011;32866;50.160;14.768;2022-10-17T09:19:06;34.55;;;20.88;;
46875;SDS011;32866;50.160;14.768;2022-10-17T09:29:59;30.35;;;20.75;;
46875;SDS011;32866;50.160;14.768;2022-10-17T09:32:39;26.25;;;18.63;;
46875;SDS011;32866;50.160;14.768;2022-10-17T09:35:10;26.52;;;18.73;;
46875;SDS011;32866;50.160;14.768;2022-10-17T09:37:37;29.25;;;19.13;;
46875;SDS011;32866;50.160;14.768;2022-10-17T09:42:30;26.10;;;19.00;;
46875;SDS011;32866;50.160;14.768;2022-10-17T09:47:39;28.15;;;18.95;;
46875;SDS011;32866;50.160;14.768;2022-10-17T09:50:16;27.92;;;18.90;;
46875;SDS011;32866;50.160;14.768;2022-10-17T09:52:49;31.23;;;20.23;;
46875;SDS011;32866;50.160;14.768;2022-10-17T09:57:59;34.78;;;18.80;;
46875;SDS011;32866;50.160;14.768;2022-10-17T10:00:36;26.08;;;19.00;;
46875;SDS011;32866;50.160;14.768;2022-10-17T10:03:07;24.95;;;16.98;;
46875;SDS011;32866;50.160;14.768;2022-10-17T10:05:44;26.98;;;17.27;;
46875;SDS011;32866;50.160;14.768;2022-10-17T10:08:25;23.58;;;17.13;;
46875;SDS011;32866;50.160;14.768;2022-10-17T10:10:57;26.17;;;19.30;;
46875;SDS011;32866;50.160;14.768;2022-10-17T10:13:25;27.60;;;18.83;;
46875;SDS011;32866;50.160;14.768;2022-10-17T10:15:51;27.45;;;18.88;;
46875;SDS011;32866;50.160;14.768;2022-10-17T10:20:44;24.40;;;16.63;;
46875;SDS011;32866;50.160;14.768;2022-10-17T10:25:57;23.65;;;17.40;;
46875;SDS011;32866;50.160;14.768;2022-10-17T10:28:26;19.40;;;15.23;;
46875;SDS011;32866;50.160;14.768;2022-10-17T10:30:55;22.27;;;15.82;;
46875;SDS011;32866;50.160;14.768;2022-10-17T10:33:25;26.70;;;15.68;;
46875;SDS011;32866;50.160;14.768;2022-10-17T10:36:03;23.10;;;17.20;;
46875;SDS011;32866;50.160;14.768;2022-10-17T10:38:31;22.45;;;15.60;;
46875;SDS011;32866;50.160;14.768;2022-10-17T10:41:05;26.00;;;14.65;;
46875;SDS011;32866;50.160;14.768;2022-10-17T10:43:34;18.40;;;14.63;;
46875;SDS011;32866;50.160;14.768;2022-10-17T10:46:24;18.15;;;13.80;;
46875;SDS011;32866;50.160;14.768;2022-10-17T10:48:53;19.05;;;14.35;;
46875;SDS011;32866;50.160;14.768;2022-10-17T10:51:23;20.83;;;14.43;;
46875;SDS011;32866;50.160;14.768;2022-10-17T10:56:40;20.52;;;15.05;;
46875;SDS011;32866;50.160;14.768;2022-10-17T10:59:24;20.33;;;13.65;;
46875;SDS011;32866;50.160;14.768;2022-10-17T11:02:10;19.70;;;14.88;;
46875;SDS011;32866;50.160;14.768;2022-10-17T11:07:59;20.05;;;14.88;;
46875;SDS011;32866;50.160;14.768;2022-10-17T11:10:42;19.77;;;14.48;;
46875;SDS011;32866;50.160;14.768;2022-10-17T11:13:24;18.13;;;14.02;;
46875;SDS011;32866;50.160;14.768;2022-10-17T11:15:58;21.42;;;14.02;;
46875;SDS011;32866;50.160;14.768;2022-10-17T11:18:41;18.90;;;14.68;;
46875;SDS011;32866;50.160;14.768;2022-10-17T11:23:46;15.82;;;12.63;;
46875;SDS011;32866;50.160;14.768;2022-10-17T11:26:24;21.35;;;13.70;;
46875;SDS011;32866;50.160;14.768;2022-10-17T11:31:21;17.67;;;13.27;;
46875;SDS011;32866;50.160;14.768;2022-10-17T11:33:51;18.10;;;12.57;;
46875;SDS011;32866;50.160;14.768;2022-10-17T11:36:23;14.32;;;12.40;;
46875;SDS011;32866;50.160;14.768;2022-10-17T11:38:54;15.65;;;12.68;;
46875;SDS011;32866;50.160;14.768;2022-10-17T11:41:45;16.08;;;12.90;;
46875;SDS011;32866;50.160;14.768;2022-10-17T11:47:06;18.83;;;12.50;;
46875;SDS011;32866;50.160;14.768;2022-10-17T11:49:35;15.52;;;11.98;;
46875;SDS011;32866;50.160;14.768;2022-10-17T11:52:21;14.95;;;10.90;;
46875;SDS011;32866;50.160;14.768;2022-10-17T11:54:55;18.52;;;11.73;;
46875;SDS011;32866;50.160;14.768;2022-10-17T11:57:30;15.27;;;12.40;;
46875;SDS011;32866;50.160;14.768;2022-10-17T12:02:39;15.18;;;11.55;;
46875;SDS011;32866;50.160;14.768;2022-10-17T12:05:19;14.07;;;11.43;;
46875;SDS011;32866;50.160;14.768;2022-10-17T12:07:58;15.85;;;11.55;;
46875;SDS011;32866;50.160;14.768;2022-10-17T12:10:34;13.63;;;11.23;;
46875;SDS011;32866;50.160;14.768;2022-10-17T12:15:54;15.68;;;11.55;;
46875;SDS011;32866;50.160;14.768;2022-10-17T12:18:23;14.80;;;12.20;;
46875;SDS011;32866;50.160;14.768;2022-10-17T12:20:57;14.30;;;10.77;;
46875;SDS011;32866;50.160;14.768;2022-10-17T12:23:27;15.13;;;11.68;;
46875;SDS011;32866;50.160;14.768;2022-10-17T12:25:58;14.88;;;11.40;;
46875;SDS011;32866;50.160;14.768;2022-10-17T12:31:09;13.50;;;9.98;;
46875;SDS011;32866;50.160;14.768;2022-10-17T12:33:50;12.10;;;10.80;;
46875;SDS011;32866;50.160;14.768;2022-10-17T12:38:50;13.32;;;10.90;;
46875;SDS011;32866;50.160;14.768;2022-10-17T12:49:46;14.73;;;11.00;;
46875;SDS011;32866;50.160;14.768;2022-10-17T12:52:17;14.07;;;10.57;;
46875;SDS011;32866;50.160;14.768;2022-10-17T12:55:13;13.40;;;10.73;;
46875;SDS011;32866;50.160;14.768;2022-10-17T13:03:19;15.33;;;11.47;;
46875;SDS011;32866;50.160;14.768;2022-10-17T13:05:59;12.32;;;10.93;;
46875;SDS011;32866;50.160;14.768;2022-10-17T13:08:29;12.73;;;10.00;;
46875;SDS011;32866;50.160;14.768;2022-10-17T13:10:58;11.93;;;9.98;;
46875;SDS011;32866;50.160;14.768;2022-10-17T13:13:29;14.10;;;11.23;;
46875;SDS011;32866;50.160;14.768;2022-10-17T13:16:25;11.57;;;9.52;;
46875;SDS011;32866;50.160;14.768;2022-10-17T13:18:54;14.05;;;10.55;;
46875;SDS011;32866;50.160;14.768;2022-10-17T13:21:19;11.68;;;9.80;;
46875;SDS011;32866;50.160;14.768;2022-10-17T13:23:45;12.23;;;10.15;;
46875;SDS011;32866;50.160;14.768;2022-10-17T13:26:14;17.95;;;11.15;;
46875;SDS011;32866;50.160;14.768;2022-10-17T13:31:31;14.32;;;11.18;;
46875;SDS011;32866;50.160;14.768;2022-10-17T13:34:02;13.20;;;10.43;;
46875;SDS011;32866;50.160;14.768;2022-10-17T13:36:29;17.50;;;11.27;;
46875;SDS011;32866;50.160;14.768;2022-10-17T13:38:57;17.85;;;11.18;;
46875;SDS011;32866;50.160;14.768;2022-10-17T13:41:25;13.50;;;10.45;;
46875;SDS011;32866;50.160;14.768;2022-10-17T13:43:53;19.08;;;10.77;;
46875;SDS011;32866;50.160;14.768;2022-10-17T13:46:26;12.05;;;10.13;;
46875;SDS011;32866;50.160;14.768;2022-10-17T13:48:54;17.48;;;10.32;;
46875;SDS011;32866;50.160;14.768;2022-10-17T13:51:21;13.13;;;11.25;;
46875;SDS011;32866;50.160;14.768;2022-10-17T13:53:47;15.63;;;10.02;;
46875;SDS011;32866;50.160;14.768;2022-10-17T13:56:23;14.40;;;10.50;;
46875;SDS011;32866;50.160;14.768;2022-10-17T13:58:53;15.02;;;10.43;;
46875;SDS011;32866;50.160;14.768;2022-10-17T14:01:21;15.40;;;10.18;;
46875;SDS011;32866;50.160;14.768;2022-10-17T14:03:48;14.75;;;11.30;;
46875;SDS011;32866;50.160;14.768;2022-10-17T14:09:03;12.20;;;9.98;;
46875;SDS011;32866;50.160;14.768;2022-10-17T14:14:04;19.67;;;11.23;;
46875;SDS011;32866;50.160;14.768;2022-10-17T14:16:38;14.52;;;10.85;;
46875;SDS011;32866;50.160;14.768;2022-10-17T14:19:18;14.77;;;10.57;;
46875;SDS011;32866;50.160;14.768;2022-10-17T14:22:14;13.73;;;10.13;;
46875;SDS011;32866;50.160;14.768;2022-10-17T14:24:46;13.93;;;10.55;;
46875;SDS011;32866;50.160;14.768;2022-10-17T14:29:59;15.93;;;9.93;;
46875;SDS011;32866;50.160;14.768;2022-10-17T14:32:28;13.40;;;9.20;;
46875;SDS011;32866;50.160;14.768;2022-10-17T14:34:56;14.05;;;10.82;;
46875;SDS011;32866;50.160;14.768;2022-10-17T14:39:48;13.68;;;9.88;;
46875;SDS011;32866;50.160;14.768;2022-10-17T14:42:16;13.90;;;9.20;;
46875;SDS011;32866;50.160;14.768;2022-10-17T14:44:46;13.95;;;9.82;;
46875;SDS011;32866;50.160;14.768;2022-10-17T14:47:16;12.77;;;9.15;;
46875;SDS011;32866;50.160;14.768;2022-10-17T14:49:49;12.82;;;9.75;;
46875;SDS011;32866;50.160;14.768;2022-10-17T14:54:45;13.80;;;9.93;;
46875;SDS011;32866;50.160;14.768;2022-10-17T14:59:52;15.05;;;9.88;;
46875;SDS011;32866;50.160;14.768;2022-10-17T15:02:19;13.85;;;9.52;;
46875;SDS011;32866;50.160;14.768;2022-10-17T15:04:45;12.73;;;10.02;;
46875;SDS011;32866;50.160;14.768;2022-10-17T15:07:14;13.63;;;10.15;;
46875;SDS011;32866;50.160;14.768;2022-10-17T15:09:40;12.35;;;9.85;;
46875;SDS011;32866;50.160;14.768;2022-10-17T15:12:10;16.67;;;9.95;;
46875;SDS011;32866;50.160;14.768;2022-10-17T15:14:38;15.07;;;9.52;;
46875;SDS011;32866;50.160;14.768;2022-10-17T15:17:07;14.68;;;10.55;;
46875;SDS011;32866;50.160;14.768;2022-10-17T15:19:43;14.15;;;9.63;;
46875;SDS011;32866;50.160;14.768;2022-10-17T15:24:33;20.25;;;10.05;;
46875;SDS011;32866;50.160;14.768;2022-10-17T15:26:59;10.95;;;9.25;;
46875;SDS011;32866;50.160;14.768;2022-10-17T15:29:24;12.98;;;10.13;;
46875;SDS011;32866;50.160;14.768;2022-10-17T15:31:49;15.43;;;10.32;;
46875;SDS011;32866;50.160;14.768;2022-10-17T15:34:15;13.65;;;10.77;;
46875;SDS011;32866;50.160;14.768;2022-10-17T15:36:41;14.43;;;10.55;;
46875;SDS011;32866;50.160;14.768;2022-10-17T15:39:12;13.73;;;10.00;;
46875;SDS011;32866;50.160;14.768;2022-10-17T15:44:02;16.80;;;10.60;;
46875;SDS011;32866;50.160;14.768;2022-10-17T15:48:55;14.85;;;10.05;;
46875;SDS011;32866;50.160;14.768;2022-10-17T15:51:21;16.55;;;10.70;;
46875;SDS011;32866;50.160;14.768;2022-10-17T15:53:47;15.23;;;10.48;;
46875;SDS011;32866;50.160;14.768;2022-10-17T15:58:49;14.55;;;10.68;;
46875;SDS011;32866;50.160;14.768;2022-10-17T16:03:45;12.50;;;10.38;;
46875;SDS011;32866;50.160;14.768;2022-10-17T16:06:12;14.68;;;10.27;;
46875;SDS011;32866;50.160;14.768;2022-10-17T16:11:03;18.88;;;12.23;;
46875;SDS011;32866;50.160;14.768;2022-10-17T16:15:53;14.30;;;10.98;;
46875;SDS011;32866;50.160;14.768;2022-10-17T16:20:45;15.40;;;10.13;;
46875;SDS011;32866;50.160;14.768;2022-10-17T16:25:37;21.23;;;10.65;;
46875;SDS011;32866;50.160;14.768;2022-10-17T16:28:04;13.80;;;10.77;;
46875;SDS011;32866;50.160;14.768;2022-10-17T16:30:32;15.85;;;11.30;;
46875;SDS011;32866;50.160;14.768;2022-10-17T16:33:01;14.00;;;10.68;;
46875;SDS011;32866;50.160;14.768;2022-10-17T16:37:53;15.38;;;10.98;;
46875;SDS011;32866;50.160;14.768;2022-10-17T16:40:20;18.33;;;11.75;;
46875;SDS011;32866;50.160;14.768;2022-10-17T16:45:18;18.85;;;10.98;;
46875;SDS011;32866;50.160;14.768;2022-10-17T16:47:45;16.88;;;12.70;;
46875;SDS011;32866;50.160;14.768;2022-10-17T16:50:10;18.25;;;12.73;;
46875;SDS011;32866;50.160;14.768;2022-10-17T16:55:01;23.02;;;13.07;;
46875;SDS011;32866;50.160;14.768;2022-10-17T16:57:27;19.25;;;13.85;;
46875;SDS011;32866;50.160;14.768;2022-10-17T16:59:52;29.70;;;16.67;;
46875;SDS011;32866;50.160;14.768;2022-10-17T17:04:43;26.77;;;16.63;;
46875;SDS011;32866;50.160;14.768;2022-10-17T17:09:34;21.90;;;15.45;;
46875;SDS011;32866;50.160;14.768;2022-10-17T17:11:59;24.70;;;16.13;;
46875;SDS011;32866;50.160;14.768;2022-10-17T17:14:24;24.20;;;16.55;;
46875;SDS011;32866;50.160;14.768;2022-10-17T17:16:50;28.40;;;16.70;;
46875;SDS011;32866;50.160;14.768;2022-10-17T17:21:44;24.48;;;16.10;;
46875;SDS011;32866;50.160;14.768;2022-10-17T17:24:14;23.73;;;17.13;;